createdAt,value
2022-09-09T00:03:19.364Z,17.47
2022-09-09T00:08:23.875Z,17.56
2022-09-09T00:14:00.477Z,17.52
2022-09-09T00:19:09.272Z,17.58
2022-09-09T00:24:15.051Z,17.30
2022-09-09T00:29:36.518Z,17.22
2022-09-09T00:34:49.796Z,17.26
2022-09-09T00:39:55.777Z,17.04
2022-09-09T00:45:00.157Z,17.13
2022-09-09T00:50:04.102Z,17.12
2022-09-09T00:55:19.780Z,17.13
2022-09-09T01:00:31.310Z,17.25
2022-09-09T01:05:47.397Z,17.04
2022-09-09T01:10:51.999Z,17.23
2022-09-09T01:16:01.145Z,17.34
2022-09-09T01:21:18.976Z,16.88
2022-09-09T01:26:35.281Z,17.11
2022-09-09T01:31:43.875Z,16.99
2022-09-09T01:36:53.145Z,17.00
2022-09-09T01:41:55.633Z,17.03
2022-09-09T01:46:57.512Z,17.04
2022-09-09T01:51:59.390Z,16.90
2022-09-09T01:57:19.972Z,16.68
2022-09-09T02:02:29.532Z,16.62
2022-09-09T02:07:44.007Z,16.73
2022-09-09T02:13:24.550Z,16.63
2022-09-09T02:18:36.730Z,16.41
2022-09-09T02:23:40.688Z,16.52
2022-09-09T02:28:44.845Z,16.43
2022-09-09T02:33:53.665Z,16.26
2022-09-09T02:38:55.467Z,16.21
2022-09-09T02:44:01.664Z,16.27
2022-09-09T02:49:18.960Z,16.21
2022-09-09T02:54:31.777Z,16.09
2022-09-09T02:59:36.090Z,16.00
2022-09-09T03:04:41.056Z,16.20
2022-09-09T03:09:43.170Z,15.95
2022-09-09T03:14:46.970Z,16.17
2022-09-09T03:19:50.515Z,15.95
2022-09-09T03:24:52.988Z,15.93
2022-09-09T03:29:54.677Z,15.87
2022-09-09T03:34:59.284Z,15.79
2022-09-09T03:40:01.653Z,15.78
2022-09-09T03:45:05.992Z,15.73
2022-09-09T03:50:10.376Z,15.83
2022-09-09T03:55:15.390Z,15.71
2022-09-09T04:00:17.645Z,15.64
2022-09-09T04:05:21.252Z,15.74
2022-09-09T04:10:24.121Z,15.83
2022-09-09T04:15:26.788Z,15.73
2022-09-09T04:20:28.606Z,15.73
2022-09-09T04:25:30.452Z,15.59
2022-09-09T04:30:32.793Z,15.61
2022-09-09T04:35:34.943Z,15.73
2022-09-09T04:40:36.713Z,15.64
2022-09-09T04:45:38.429Z,15.87
2022-09-09T04:50:41.560Z,15.99
2022-09-09T04:55:45.917Z,16.00
2022-09-09T05:00:48.349Z,16.01
2022-09-09T05:05:51.425Z,15.88
2022-09-09T05:10:52.989Z,16.08
2022-09-09T05:15:55.590Z,16.27
2022-09-09T05:21:01.366Z,16.23
2022-09-09T05:26:03.943Z,16.28
2022-09-09T05:31:09.084Z,16.27
2022-09-09T05:36:17.620Z,16.47
2022-09-09T05:41:21.167Z,16.59
2022-09-09T05:46:24.975Z,16.80
2022-09-09T05:51:30.975Z,16.75
2022-09-09T05:56:34.255Z,16.74
2022-09-09T06:01:37.423Z,16.80
2022-09-09T06:06:42.448Z,16.70
2022-09-09T06:11:49.499Z,16.77
2022-09-09T06:16:51.107Z,16.83
2022-09-09T06:21:56.362Z,16.94
2022-09-09T06:26:58.397Z,17.10
2022-09-09T06:32:04.476Z,17.12
2022-09-09T06:37:07.562Z,17.11
2022-09-09T06:42:17.317Z,17.07
2022-09-09T06:47:25.591Z,17.11
2022-09-09T06:52:27.772Z,17.32
2022-09-09T06:57:37.258Z,17.32
2022-09-09T07:02:42.233Z,17.41
2022-09-09T07:07:45.038Z,17.58
2022-09-09T07:12:53.143Z,17.70
2022-09-09T07:17:55.717Z,17.78
2022-09-09T07:22:57.802Z,17.95
2022-09-09T07:27:59.507Z,18.04
2022-09-09T07:33:01.074Z,18.16
2022-09-09T07:38:07.557Z,18.26
2022-09-09T07:43:12.417Z,18.45
2022-09-09T07:48:16.075Z,18.56
2022-09-09T07:53:17.751Z,18.58
2022-09-09T07:58:19.421Z,18.68
2022-09-09T08:03:22.981Z,18.89
2022-09-09T08:08:24.576Z,18.85
2022-09-09T08:13:26.292Z,19.07
2022-09-09T08:18:28.810Z,19.05
2022-09-09T08:23:31.065Z,19.09
2022-09-09T08:28:32.617Z,19.15
2022-09-09T08:33:34.583Z,19.21
2022-09-09T08:38:36.943Z,19.35
2022-09-09T08:43:38.613Z,19.36
2022-09-09T08:48:55.999Z,19.47
2022-09-09T08:54:01.066Z,19.57
2022-09-09T08:59:06.351Z,19.73
2022-09-09T09:04:39.597Z,19.82
2022-09-09T09:09:59.648Z,19.92
2022-09-09T09:15:02.142Z,19.86
2022-09-09T09:20:04.268Z,19.93
2022-09-09T09:25:19.213Z,19.90
2022-09-09T09:30:29.531Z,19.85
2022-09-09T09:35:41.641Z,19.82
2022-09-09T09:40:53.029Z,19.83
2022-09-09T09:46:14.346Z,19.88
2022-09-09T09:51:19.765Z,19.89
2022-09-09T09:56:30.070Z,19.90
2022-09-09T10:01:37.170Z,19.78
2022-09-09T10:06:43.725Z,19.76
2022-09-09T10:11:50.863Z,19.74
2022-09-09T10:16:53.297Z,19.72
2022-09-09T10:22:19.163Z,19.85
2022-09-09T10:27:23.421Z,19.92
2022-09-09T10:32:38.280Z,19.98
2022-09-09T10:37:59.553Z,20.05
2022-09-09T10:43:50.357Z,20.09
2022-09-09T10:49:01.185Z,20.10
2022-09-09T10:54:12.190Z,20.14
2022-09-09T10:59:27.703Z,20.21
2022-09-09T11:04:44.936Z,20.32
2022-09-09T11:09:51.204Z,20.27
2022-09-09T11:14:58.705Z,20.28
2022-09-09T11:20:00.224Z,20.29
2022-09-09T11:25:20.258Z,20.35
2022-09-09T11:30:53.663Z,20.37
2022-09-09T11:36:07.215Z,20.48
2022-09-09T11:41:11.041Z,20.58
2022-09-09T11:46:16.251Z,20.59
2022-09-09T11:51:20.530Z,20.60
2022-09-09T11:56:31.769Z,20.64
2022-09-09T12:01:37.733Z,20.63
2022-09-09T12:07:06.797Z,20.68
2022-09-09T12:12:14.593Z,20.69
2022-09-09T12:17:15.972Z,20.70
2022-09-09T12:22:29.178Z,20.66
2022-09-09T12:27:59.640Z,20.64
2022-09-09T12:33:13.728Z,20.69
2022-09-09T12:38:23.513Z,20.76
2022-09-09T12:43:26.500Z,20.89
2022-09-09T12:48:43.106Z,21.07
2022-09-09T12:53:46.990Z,21.03
2022-09-09T12:58:52.547Z,21.24
2022-09-09T13:03:54.227Z,21.22
2022-09-09T13:09:02.538Z,21.17
2022-09-09T13:14:04.453Z,21.11
2022-09-09T13:19:18.726Z,21.17
2022-09-09T13:24:34.534Z,21.19
2022-09-09T13:29:36.013Z,21.29
2022-09-09T13:34:37.556Z,21.23
2022-09-09T13:39:39.144Z,21.24
2022-09-09T13:44:42.075Z,21.27
2022-09-09T13:49:43.639Z,21.29
2022-09-09T13:54:52.600Z,21.29
2022-09-09T14:00:11.311Z,21.32
2022-09-09T14:05:12.916Z,21.30
2022-09-09T14:10:14.422Z,21.26
2022-09-09T14:15:16.203Z,21.35
2022-09-09T14:20:18.517Z,21.41
2022-09-09T14:25:20.050Z,21.39
2022-09-09T14:30:21.631Z,21.47
2022-09-09T14:35:23.199Z,21.48
2022-09-09T14:40:24.758Z,21.56
2022-09-09T14:45:27.367Z,21.53
2022-09-09T14:50:29.963Z,21.51
2022-09-09T14:55:32.400Z,21.58
2022-09-09T15:00:33.973Z,21.56
2022-09-09T15:05:37.203Z,21.56
2022-09-09T15:10:40.034Z,21.52
2022-09-09T15:15:42.551Z,21.55
2022-09-09T15:20:47.455Z,21.58
2022-09-09T15:25:56.818Z,21.65
2022-09-09T15:30:59.017Z,21.65
2022-09-09T15:36:00.672Z,21.69
2022-09-09T15:41:02.168Z,21.74
2022-09-09T15:46:31.028Z,21.70
2022-09-09T15:51:47.935Z,21.65
2022-09-09T15:56:52.838Z,21.58
2022-09-09T16:01:55.877Z,21.48
2022-09-09T16:07:01.108Z,21.46
2022-09-09T16:12:07.209Z,21.39
2022-09-09T16:17:08.940Z,21.34
2022-09-09T16:22:10.512Z,21.25
2022-09-09T16:27:12.584Z,21.24
2022-09-09T16:32:14.129Z,21.14
2022-09-09T16:37:15.609Z,21.12
2022-09-09T16:42:17.976Z,21.12
2022-09-09T16:47:19.607Z,21.13
2022-09-09T16:52:21.111Z,21.07
2022-09-09T16:57:22.619Z,21.09
2022-09-09T17:02:25.336Z,21.10
2022-09-09T17:07:26.951Z,21.03
2022-09-09T17:12:28.732Z,20.94
2022-09-09T17:17:31.912Z,20.85
2022-09-09T17:22:33.836Z,20.73
2022-09-09T17:27:35.406Z,20.62
2022-09-09T17:32:37.440Z,20.52
2022-09-09T17:37:39.061Z,20.49
2022-09-09T17:42:41.609Z,20.34
2022-09-09T17:47:43.871Z,20.34
2022-09-09T17:52:45.452Z,20.38
2022-09-09T17:57:47.088Z,20.29
2022-09-09T18:02:48.644Z,20.21
2022-09-09T18:07:50.212Z,20.22
2022-09-09T18:12:51.922Z,20.13
2022-09-09T18:17:53.538Z,20.02
2022-09-09T18:22:55.312Z,20.01
2022-09-09T18:27:58.465Z,19.87
2022-09-09T18:33:00.115Z,19.88
2022-09-09T18:38:01.727Z,19.84
2022-09-09T18:43:03.485Z,19.77
2022-09-09T18:48:05.735Z,19.72
2022-09-09T18:53:07.253Z,19.59
2022-09-09T18:58:08.766Z,19.61
2022-09-09T19:03:10.291Z,19.52
2022-09-09T19:08:11.824Z,19.55
2022-09-09T19:13:14.051Z,19.49
2022-09-09T19:18:15.624Z,19.51
2022-09-09T19:23:17.214Z,19.44
2022-09-09T19:28:18.771Z,19.43
2022-09-09T19:33:20.277Z,19.37
2022-09-09T19:38:21.778Z,19.41
2022-09-09T19:43:24.738Z,19.47
2022-09-09T19:48:31.355Z,19.32
2022-09-09T19:53:36.154Z,19.28
2022-09-09T19:58:39.976Z,19.28
2022-09-09T20:03:43.427Z,19.27
2022-09-09T20:08:47.230Z,19.24
2022-09-09T20:13:49.534Z,19.15
2022-09-09T20:18:53.337Z,19.12
2022-09-09T20:23:55.895Z,19.08
2022-09-09T20:28:57.420Z,18.98
2022-09-09T20:33:59.258Z,19.04
2022-09-09T20:39:07.504Z,18.95
2022-09-09T20:44:13.226Z,19.15
2022-09-09T20:49:16.531Z,19.09
2022-09-09T20:54:23.808Z,19.04
2022-09-09T20:59:27.202Z,18.97
2022-09-09T21:04:29.183Z,19.04
2022-09-09T21:09:31.027Z,19.07
2022-09-09T21:14:32.677Z,18.97
2022-09-09T21:19:35.644Z,19.04
2022-09-09T21:24:38.283Z,18.91
2022-09-09T21:29:39.790Z,18.86
2022-09-09T21:34:42.372Z,18.94
2022-09-09T21:39:43.975Z,18.89
2022-09-09T21:44:45.537Z,18.82
2022-09-09T21:49:47.037Z,18.84
2022-09-09T21:54:48.880Z,18.80
2022-09-09T21:59:50.394Z,18.76
2022-09-09T22:04:52.139Z,18.58
2022-09-09T22:09:53.726Z,18.50
2022-09-09T22:14:56.279Z,18.50
2022-09-09T22:19:58.362Z,18.50
2022-09-09T22:24:59.931Z,18.34
2022-09-09T22:30:01.612Z,18.40
2022-09-09T22:35:03.321Z,18.36
2022-09-09T22:40:05.337Z,18.29
2022-09-09T22:45:07.938Z,18.23
2022-09-09T22:50:10.242Z,18.33
2022-09-09T22:55:11.762Z,18.23
2022-09-09T23:00:13.829Z,18.23
2022-09-09T23:05:15.647Z,18.15
2022-09-09T23:10:17.292Z,18.12
2022-09-09T23:15:19.884Z,18.04
2022-09-09T23:20:22.187Z,17.98
2022-09-09T23:25:23.745Z,18.06
2022-09-09T23:30:25.497Z,17.97
2022-09-09T23:35:27.080Z,17.98
2022-09-09T23:40:28.645Z,17.86
2022-09-09T23:45:30.217Z,17.74
2022-09-09T23:50:31.920Z,17.67
2022-09-09T23:55:33.862Z,17.69
